createdAt,value
2019-01-12T00:00:01.109Z,5.77
2019-01-12T00:01:07.216Z,5.76
2019-01-12T00:02:13.397Z,5.74
2019-01-12T00:03:19.777Z,5.84
2019-01-12T00:04:26.086Z,5.80
2019-01-12T00:05:32.391Z,5.88
2019-01-12T00:07:04.156Z,5.96
2019-01-12T00:08:10.138Z,5.97
2019-01-12T00:09:16.516Z,5.94
2019-01-12T00:10:22.508Z,5.86
2019-01-12T00:11:28.440Z,5.82
2019-01-12T00:12:34.786Z,5.89
2019-01-12T00:13:41.166Z,5.90
2019-01-12T00:14:47.461Z,5.93
2019-01-12T00:15:53.759Z,5.82
2019-01-12T00:17:00.221Z,5.80
2019-01-12T00:18:05.856Z,5.97
2019-01-12T00:19:12.208Z,5.83
2019-01-12T00:20:18.549Z,5.80
2019-01-12T00:21:24.542Z,5.73
2019-01-12T00:22:30.939Z,5.74
2019-01-12T00:23:37.295Z,5.98
2019-01-12T00:24:43.234Z,5.95
2019-01-12T00:25:49.221Z,6.01
2019-01-12T00:26:55.551Z,6.14
2019-01-12T00:28:01.887Z,5.96
2019-01-12T00:29:08.197Z,5.93
2019-01-12T00:30:13.833Z,5.93
2019-01-12T00:31:20.258Z,5.78
2019-01-12T00:32:26.672Z,5.74
2019-01-12T00:33:33.098Z,5.87
2019-01-12T00:34:39.454Z,5.92
2019-01-12T00:35:45.767Z,5.92
2019-01-12T00:36:52.082Z,6.04
2019-01-12T00:37:59.303Z,5.94
2019-01-12T00:39:05.847Z,5.92
2019-01-12T00:40:11.523Z,5.99
2019-01-12T00:41:17.493Z,5.95
2019-01-12T00:42:23.775Z,5.98
2019-01-12T00:43:30.108Z,6.06
2019-01-12T00:44:36.413Z,6.09
2019-01-12T00:45:42.775Z,6.07
2019-01-12T00:46:49.819Z,6.01
2019-01-12T00:47:56.137Z,6.12
2019-01-12T00:49:02.437Z,6.05
2019-01-12T00:50:08.850Z,5.83
2019-01-12T00:51:14.815Z,5.88
2019-01-12T00:52:21.128Z,5.85
2019-01-12T00:53:27.549Z,5.89
2019-01-12T00:54:38.507Z,5.94
2019-01-12T00:55:40.199Z,5.80
2019-01-12T00:56:46.579Z,5.95
2019-01-12T00:57:52.968Z,5.93
2019-01-12T00:58:59.304Z,5.85
2019-01-12T01:00:06.211Z,5.86
2019-01-12T01:01:12.548Z,5.95
2019-01-12T01:02:18.876Z,5.89
2019-01-12T01:03:24.892Z,5.95
2019-01-12T01:04:31.252Z,5.98
2019-01-12T01:05:37.618Z,6.06
2019-01-12T01:06:44.204Z,6.07
2019-01-12T01:07:51.214Z,5.94
2019-01-12T01:08:58.421Z,5.76
2019-01-12T01:10:05.173Z,5.75
2019-01-12T01:11:11.555Z,5.71
2019-01-12T01:12:17.498Z,5.77
2019-01-12T01:13:23.858Z,5.75
2019-01-12T01:14:30.204Z,5.93
2019-01-12T01:15:36.565Z,6.12
2019-01-12T01:16:42.926Z,6.07
2019-01-12T01:17:48.888Z,6.04
2019-01-12T01:18:55.246Z,6.06
2019-01-12T01:20:01.588Z,6.00
2019-01-12T01:21:07.938Z,5.93
2019-01-12T01:22:14.262Z,5.89
2019-01-12T01:23:20.314Z,6.10
2019-01-12T01:24:26.701Z,6.12
2019-01-12T01:25:32.996Z,5.89
2019-01-12T01:26:38.618Z,5.86
2019-01-12T01:27:44.657Z,5.90
2019-01-12T01:28:51.054Z,5.85
2019-01-12T01:29:57.397Z,5.94
2019-01-12T01:31:03.742Z,5.94
2019-01-12T01:32:10.628Z,5.77
2019-01-12T01:33:17.868Z,5.93
2019-01-12T01:34:24.255Z,5.90
2019-01-12T01:35:30.229Z,5.95
2019-01-12T01:36:36.813Z,5.94
2019-01-12T01:37:42.900Z,5.82
2019-01-12T01:38:49.284Z,5.98
2019-01-12T01:39:55.586Z,5.85
2019-01-12T01:41:01.857Z,5.91
2019-01-12T01:42:07.846Z,5.93
2019-01-12T01:43:14.202Z,5.87
2019-01-12T01:44:20.579Z,5.92
2019-01-12T01:45:27.003Z,5.94
2019-01-12T01:46:33.349Z,5.91
2019-01-12T01:47:39.705Z,5.88
2019-01-12T01:48:46.043Z,5.88
2019-01-12T01:49:51.981Z,5.94
2019-01-12T01:50:58.297Z,5.72
2019-01-12T01:52:04.250Z,5.82
2019-01-12T01:53:10.190Z,5.91
2019-01-12T01:54:16.518Z,5.94
2019-01-12T01:55:22.800Z,5.90
2019-01-12T01:56:29.121Z,5.85
2019-01-12T01:57:35.422Z,5.79
2019-01-12T01:58:41.374Z,5.81
2019-01-12T01:59:47.710Z,5.86
2019-01-12T02:00:54.043Z,5.93
2019-01-12T02:02:00.338Z,5.83
2019-01-12T02:03:06.733Z,5.87
2019-01-12T02:04:13.086Z,5.83
2019-01-12T02:05:19.449Z,5.68
2019-01-12T02:06:25.781Z,5.69
2019-01-12T02:07:32.075Z,5.85
2019-01-12T02:08:38.445Z,5.75
2019-01-12T02:09:44.767Z,5.80
2019-01-12T02:10:51.128Z,5.89
2019-01-12T02:11:57.497Z,6.05
2019-01-12T02:13:03.869Z,5.91
2019-01-12T02:14:10.222Z,5.62
2019-01-12T02:15:16.688Z,5.45
2019-01-12T02:16:23.016Z,5.51
2019-01-12T02:17:29.370Z,5.64
2019-01-12T02:18:35.649Z,5.81
2019-01-12T02:19:41.972Z,5.61
2019-01-12T02:20:48.315Z,5.53
2019-01-12T02:21:54.622Z,5.48
2019-01-12T02:23:01.010Z,5.59
2019-01-12T02:24:07.025Z,5.60
2019-01-12T02:25:12.671Z,5.82
2019-01-12T02:26:19.006Z,5.80
2019-01-12T02:27:25.360Z,5.75
2019-01-12T02:28:31.757Z,5.76
2019-01-12T02:29:38.215Z,5.87
2019-01-12T02:30:44.533Z,5.86
2019-01-12T02:31:50.875Z,5.97
2019-01-12T02:32:57.210Z,5.78
2019-01-12T02:34:03.592Z,5.79
2019-01-12T02:35:08.812Z,5.81
2019-01-12T02:36:15.201Z,5.93
2019-01-12T02:37:21.124Z,6.03
2019-01-12T02:38:27.529Z,6.01
2019-01-12T02:39:33.901Z,5.92
2019-01-12T02:40:40.278Z,5.93
2019-01-12T02:41:46.990Z,5.97
2019-01-12T02:42:53.041Z,6.02
2019-01-12T02:43:59.355Z,5.83
2019-01-12T02:45:05.025Z,5.86
2019-01-12T02:46:11.026Z,5.87
2019-01-12T02:47:17.361Z,5.78
2019-01-12T02:48:23.707Z,5.75
2019-01-12T02:49:30.062Z,5.90
2019-01-12T02:50:36.042Z,6.01
2019-01-12T02:51:42.411Z,6.08
2019-01-12T02:52:48.811Z,6.02
2019-01-12T02:53:55.144Z,5.90
2019-01-12T02:55:08.590Z,5.85
2019-01-12T02:56:07.508Z,5.75
2019-01-12T02:57:13.837Z,5.88
2019-01-12T02:58:20.853Z,5.94
2019-01-12T02:59:28.219Z,5.85
2019-01-12T03:00:34.603Z,5.80
2019-01-12T03:01:40.918Z,5.78
2019-01-12T03:02:47.222Z,5.94
2019-01-12T03:03:53.226Z,6.02
2019-01-12T03:04:59.231Z,6.11
2019-01-12T03:06:05.280Z,6.02
2019-01-12T03:07:11.611Z,6.08
2019-01-12T03:08:17.880Z,5.94
2019-01-12T03:09:24.220Z,6.11
2019-01-12T03:10:30.572Z,5.95
2019-01-12T03:11:36.891Z,5.93
2019-01-12T03:12:43.204Z,5.91
2019-01-12T03:13:49.529Z,5.99
2019-01-12T03:14:55.911Z,5.93
2019-01-12T03:16:01.840Z,5.97
2019-01-12T03:17:07.773Z,6.07
2019-01-12T03:18:14.106Z,6.03
2019-01-12T03:19:21.396Z,6.10
2019-01-12T03:20:28.462Z,5.96
2019-01-12T03:21:34.792Z,5.87
2019-01-12T03:22:41.131Z,5.81
2019-01-12T03:23:47.458Z,5.76
2019-01-12T03:24:53.801Z,5.83
2019-01-12T03:26:00.097Z,5.73
2019-01-12T03:27:06.075Z,5.76
2019-01-12T03:28:12.105Z,5.81
2019-01-12T03:29:18.445Z,5.72
2019-01-12T03:30:24.801Z,5.89
2019-01-12T03:31:31.114Z,5.95
2019-01-12T03:32:37.480Z,6.05
2019-01-12T03:33:43.820Z,5.94
2019-01-12T03:34:50.196Z,5.84
2019-01-12T03:35:56.563Z,5.73
2019-01-12T03:37:02.915Z,5.78
2019-01-12T03:38:09.206Z,5.84
2019-01-12T03:39:15.518Z,5.93
2019-01-12T03:40:21.505Z,5.82
2019-01-12T03:41:27.790Z,5.82
2019-01-12T03:42:34.087Z,5.77
2019-01-12T03:43:40.360Z,5.94
2019-01-12T03:44:46.818Z,5.82
2019-01-12T03:45:52.482Z,5.74
2019-01-12T03:46:58.838Z,5.84
2019-01-12T03:48:04.500Z,5.79
2019-01-12T03:49:10.860Z,5.75
2019-01-12T03:50:16.499Z,5.77
2019-01-12T03:51:22.537Z,5.87
2019-01-12T03:52:28.840Z,5.94
2019-01-12T03:53:35.145Z,6.01
2019-01-12T03:54:41.446Z,6.12
2019-01-12T03:55:47.836Z,5.94
2019-01-12T03:56:54.174Z,5.83
2019-01-12T03:58:00.118Z,5.83
2019-01-12T03:59:06.541Z,6.06
2019-01-12T04:00:13.912Z,6.04
2019-01-12T04:01:19.903Z,5.99
2019-01-12T04:02:26.260Z,6.03
2019-01-12T04:03:32.605Z,6.25
2019-01-12T04:04:38.900Z,6.32
2019-01-12T04:05:45.321Z,6.26
2019-01-12T04:06:51.694Z,6.16
2019-01-12T04:07:58.000Z,6.08
2019-01-12T04:09:03.774Z,6.05
2019-01-12T04:10:09.492Z,6.01
2019-01-12T04:11:15.488Z,5.76
2019-01-12T04:12:22.604Z,5.58
2019-01-12T04:13:28.572Z,5.58
2019-01-12T04:14:34.867Z,5.57
2019-01-12T04:15:41.215Z,5.74
2019-01-12T04:16:47.592Z,5.83
2019-01-12T04:17:53.936Z,5.84
2019-01-12T04:19:00.277Z,5.91
2019-01-12T04:20:05.905Z,5.77
2019-01-12T04:21:12.227Z,5.78
2019-01-12T04:22:18.562Z,5.77
2019-01-12T04:23:24.957Z,5.66
2019-01-12T04:24:31.302Z,5.55
2019-01-12T04:25:37.664Z,5.43
2019-01-12T04:26:43.978Z,5.54
2019-01-12T04:27:50.362Z,5.62
2019-01-12T04:28:56.670Z,5.60
2019-01-12T04:30:02.628Z,5.52
2019-01-12T04:31:08.654Z,5.54
2019-01-12T04:32:15.068Z,5.51
2019-01-12T04:33:21.402Z,5.41
2019-01-12T04:34:27.816Z,5.51
2019-01-12T04:35:34.159Z,5.57
2019-01-12T04:36:40.531Z,5.52
2019-01-12T04:37:46.483Z,5.50
2019-01-12T04:38:52.751Z,5.41
2019-01-12T04:39:59.145Z,5.42
2019-01-12T04:41:05.519Z,5.55
2019-01-12T04:42:11.866Z,5.62
2019-01-12T04:43:18.221Z,5.71
2019-01-12T04:44:24.524Z,5.67
2019-01-12T04:45:30.860Z,5.62
2019-01-12T04:46:37.197Z,5.50
2019-01-12T04:47:43.163Z,5.46
2019-01-12T04:48:49.463Z,5.49
2019-01-12T04:49:55.748Z,5.63
2019-01-12T04:51:02.077Z,5.65
2019-01-12T04:52:08.391Z,5.73
2019-01-12T04:53:14.709Z,5.78
2019-01-12T04:54:21.042Z,5.68
2019-01-12T04:55:27.343Z,5.75
2019-01-12T04:56:33.702Z,5.71
2019-01-12T04:57:40.092Z,5.66
2019-01-12T04:58:46.424Z,5.64
2019-01-12T04:59:52.875Z,5.68
2019-01-12T05:00:59.253Z,5.64
2019-01-12T05:02:04.911Z,5.75
2019-01-12T05:03:11.247Z,5.66
2019-01-12T05:04:17.554Z,5.66
2019-01-12T05:05:23.522Z,5.68
2019-01-12T05:06:29.882Z,5.60
2019-01-12T05:07:36.220Z,5.66
2019-01-12T05:08:42.528Z,5.53
2019-01-12T05:09:48.820Z,5.65
2019-01-12T05:10:55.156Z,5.74
2019-01-12T05:12:01.472Z,5.67
2019-01-12T05:13:07.762Z,5.75
2019-01-12T05:14:14.022Z,5.82
2019-01-12T05:15:20.309Z,5.77
2019-01-12T05:16:26.646Z,5.53
2019-01-12T05:17:32.613Z,5.77
2019-01-12T05:18:38.970Z,5.75
2019-01-12T05:19:45.277Z,5.61
2019-01-12T05:20:51.912Z,5.45
2019-01-12T05:21:58.238Z,5.65
2019-01-12T05:23:04.601Z,5.65
2019-01-12T05:24:10.929Z,5.69
2019-01-12T05:25:16.882Z,5.57
2019-01-12T05:26:23.215Z,5.44
2019-01-12T05:27:29.523Z,5.52
2019-01-12T05:28:35.877Z,5.50
2019-01-12T05:29:42.234Z,5.43
2019-01-12T05:30:48.558Z,5.38
2019-01-12T05:31:54.910Z,5.36
2019-01-12T05:33:00.876Z,5.41
2019-01-12T05:34:07.140Z,5.53
2019-01-12T05:35:13.074Z,5.64
2019-01-12T05:36:19.389Z,5.60
2019-01-12T05:37:25.730Z,5.69
2019-01-12T05:38:32.032Z,5.65
2019-01-12T05:39:38.388Z,5.43
2019-01-12T05:40:44.712Z,5.44
2019-01-12T05:41:50.709Z,5.40
2019-01-12T05:42:57.035Z,5.46
2019-01-12T05:44:02.682Z,5.41
2019-01-12T05:45:08.283Z,5.31
2019-01-12T05:46:14.682Z,5.15
2019-01-12T05:47:20.969Z,5.17
2019-01-12T05:48:27.411Z,5.29
2019-01-12T05:49:33.406Z,5.33
2019-01-12T05:50:39.782Z,5.46
2019-01-12T05:51:46.142Z,5.44
2019-01-12T05:52:52.494Z,5.24
2019-01-12T05:53:58.821Z,5.26
2019-01-12T05:55:04.471Z,5.38
2019-01-12T05:56:10.814Z,5.42
2019-01-12T05:57:17.146Z,5.52
2019-01-12T05:58:23.500Z,5.56
2019-01-12T05:59:29.468Z,5.62
2019-01-12T06:00:35.454Z,5.66
2019-01-12T06:01:41.812Z,5.63
2019-01-12T06:02:48.232Z,5.65
2019-01-12T06:03:54.578Z,5.53
2019-01-12T06:05:00.949Z,5.55
2019-01-12T06:06:06.918Z,5.55
2019-01-12T06:07:13.273Z,5.58
2019-01-12T06:08:19.610Z,5.48
2019-01-12T06:09:25.926Z,5.55
2019-01-12T06:10:32.238Z,5.56
2019-01-12T06:11:38.558Z,5.69
2019-01-12T06:12:44.900Z,5.68
2019-01-12T06:13:51.181Z,5.53
2019-01-12T06:14:57.607Z,5.55
2019-01-12T06:16:03.630Z,5.56
2019-01-12T06:17:09.952Z,5.52
2019-01-12T06:18:16.255Z,5.46
2019-01-12T06:19:22.529Z,5.45
2019-01-12T06:20:28.862Z,5.65
2019-01-12T06:21:35.202Z,5.63
2019-01-12T06:22:41.569Z,5.46
2019-01-12T06:23:47.895Z,5.36
2019-01-12T06:24:54.213Z,5.40
2019-01-12T06:26:04.064Z,5.38
2019-01-12T06:27:06.858Z,5.41
2019-01-12T06:28:13.149Z,5.52
2019-01-12T06:29:19.459Z,5.38
2019-01-12T06:30:25.419Z,5.36
2019-01-12T06:31:31.790Z,5.32
2019-01-12T06:32:39.396Z,5.35
2019-01-12T06:33:46.567Z,5.40
2019-01-12T06:34:52.863Z,5.48
2019-01-12T06:35:59.163Z,5.62
2019-01-12T06:37:05.206Z,5.40
2019-01-12T06:38:11.560Z,5.51
2019-01-12T06:39:17.887Z,5.47
2019-01-12T06:40:24.244Z,5.46
2019-01-12T06:41:30.595Z,5.47
2019-01-12T06:42:36.954Z,5.40
2019-01-12T06:43:43.276Z,5.36
2019-01-12T06:44:49.603Z,5.52
2019-01-12T06:45:55.949Z,5.34
2019-01-12T06:47:02.269Z,5.24
2019-01-12T06:48:08.529Z,5.36
2019-01-12T06:49:14.886Z,5.29
2019-01-12T06:50:20.888Z,5.22
2019-01-12T06:51:26.865Z,5.24
2019-01-12T06:52:33.226Z,5.23
2019-01-12T06:53:40.483Z,5.13
2019-01-12T06:54:47.527Z,5.05
2019-01-12T06:55:54.071Z,5.03
2019-01-12T06:57:00.726Z,5.12
2019-01-12T06:58:07.426Z,5.31
2019-01-12T06:59:13.812Z,5.21
2019-01-12T07:00:20.231Z,5.26
2019-01-12T07:01:27.170Z,5.31
2019-01-12T07:02:34.659Z,5.33
2019-01-12T07:03:41.134Z,5.34
2019-01-12T07:04:47.572Z,5.32
2019-01-12T07:05:54.093Z,5.27
2019-01-12T07:07:00.642Z,5.36
2019-01-12T07:08:07.012Z,5.31
2019-01-12T07:09:13.451Z,5.29
2019-01-12T07:10:19.267Z,5.30
2019-01-12T07:11:25.258Z,5.30
2019-01-12T07:12:31.602Z,5.16
2019-01-12T07:13:38.050Z,5.27
2019-01-12T07:14:44.503Z,5.35
2019-01-12T07:15:50.881Z,5.40
2019-01-12T07:16:58.071Z,5.31
2019-01-12T07:18:08.897Z,5.36
2019-01-12T07:19:10.897Z,5.35
2019-01-12T07:20:16.752Z,5.37
2019-01-12T07:21:23.176Z,5.27
2019-01-12T07:22:29.545Z,5.25
2019-01-12T07:23:36.281Z,5.15
2019-01-12T07:24:42.670Z,5.09
2019-01-12T07:25:49.134Z,5.29
2019-01-12T07:26:55.603Z,5.14
2019-01-12T07:28:02.085Z,5.09
2019-01-12T07:29:08.527Z,5.02
2019-01-12T07:30:15.011Z,5.10
2019-01-12T07:31:21.594Z,5.24
2019-01-12T07:32:27.972Z,5.19
2019-01-12T07:33:34.367Z,5.19
2019-01-12T07:34:40.807Z,5.16
2019-01-12T07:35:47.209Z,5.16
2019-01-12T07:36:53.786Z,5.29
2019-01-12T07:38:01.195Z,5.33
2019-01-12T07:39:08.599Z,5.30
2019-01-12T07:40:14.767Z,5.35
2019-01-12T07:41:21.284Z,5.31
2019-01-12T07:42:27.698Z,5.33
2019-01-12T07:43:34.037Z,5.26
2019-01-12T07:44:40.514Z,5.21
2019-01-12T07:45:46.977Z,5.28
2019-01-12T07:46:53.531Z,5.32
2019-01-12T07:47:59.894Z,5.39
2019-01-12T07:49:06.271Z,5.41
2019-01-12T07:50:11.987Z,5.44
2019-01-12T07:51:18.493Z,5.51
2019-01-12T07:52:24.556Z,5.46
2019-01-12T07:53:31.075Z,5.42
2019-01-12T07:54:37.509Z,5.40
2019-01-12T07:55:43.797Z,5.22
2019-01-12T07:56:50.121Z,5.12
2019-01-12T07:57:56.606Z,5.13
2019-01-12T07:59:03.656Z,5.21
2019-01-12T08:00:11.598Z,5.32
2019-01-12T08:01:17.934Z,5.27
2019-01-12T08:02:24.334Z,5.34
2019-01-12T08:03:30.457Z,5.50
2019-01-12T08:04:36.827Z,5.41
2019-01-12T08:05:42.800Z,5.50
2019-01-12T08:06:49.093Z,5.42
2019-01-12T08:07:55.425Z,5.35
2019-01-12T08:09:01.772Z,5.36
2019-01-12T08:10:07.370Z,5.30
2019-01-12T08:11:13.342Z,5.47
2019-01-12T08:12:20.018Z,5.58
2019-01-12T08:13:25.936Z,5.57
2019-01-12T08:14:32.278Z,5.50
2019-01-12T08:15:38.626Z,5.55
2019-01-12T08:16:45.020Z,5.61
2019-01-12T08:17:50.703Z,5.57
2019-01-12T08:18:57.009Z,5.67
2019-01-12T08:20:03.789Z,5.59
2019-01-12T08:21:11.914Z,5.48
2019-01-12T08:22:18.327Z,5.39
2019-01-12T08:23:24.712Z,5.42
2019-01-12T08:24:31.119Z,5.49
2019-01-12T08:25:37.461Z,5.41
2019-01-12T08:26:44.822Z,5.33
2019-01-12T08:27:51.260Z,5.50
2019-01-12T08:28:57.570Z,5.68
2019-01-12T08:30:03.173Z,5.79
2019-01-12T08:31:09.550Z,5.85
2019-01-12T08:32:15.901Z,5.87
2019-01-12T08:33:22.287Z,5.87
2019-01-12T08:34:28.670Z,5.86
2019-01-12T08:35:35.621Z,5.75
2019-01-12T08:36:42.184Z,5.75
2019-01-12T08:37:48.718Z,5.63
2019-01-12T08:38:56.020Z,5.63
2019-01-12T08:40:03.512Z,5.61
2019-01-12T08:41:09.914Z,5.57
2019-01-12T08:42:16.345Z,5.64
2019-01-12T08:43:22.812Z,5.81
2019-01-12T08:44:29.237Z,5.79
2019-01-12T08:45:36.201Z,5.66
2019-01-12T08:46:42.684Z,5.67
2019-01-12T08:47:49.187Z,5.78
2019-01-12T08:48:55.424Z,5.66
2019-01-12T08:50:02.714Z,5.78
2019-01-12T08:51:10.116Z,5.85
2019-01-12T08:52:16.577Z,5.89
2019-01-12T08:53:23.107Z,5.87
2019-01-12T08:54:29.534Z,5.76
2019-01-12T08:55:35.866Z,5.73
2019-01-12T08:56:42.207Z,5.89
2019-01-12T08:57:48.244Z,5.78
2019-01-12T08:58:54.584Z,5.74
2019-01-12T09:00:00.885Z,5.75
2019-01-12T09:01:07.273Z,5.70
2019-01-12T09:02:13.601Z,5.64
2019-01-12T09:03:20.716Z,5.76
2019-01-12T09:04:27.120Z,5.87
2019-01-12T09:05:33.479Z,5.89
2019-01-12T09:06:39.837Z,6.02
2019-01-12T09:07:45.482Z,6.07
2019-01-12T09:08:51.831Z,6.05
2019-01-12T09:09:58.142Z,5.99
2019-01-12T09:11:04.129Z,5.82
2019-01-12T09:12:10.459Z,5.85
2019-01-12T09:13:16.452Z,5.81
2019-01-12T09:14:22.753Z,5.89
2019-01-12T09:15:29.091Z,5.92
2019-01-12T09:16:35.371Z,5.85
2019-01-12T09:17:41.385Z,5.90
2019-01-12T09:18:47.748Z,5.91
2019-01-12T09:19:54.031Z,5.98
2019-01-12T09:21:00.366Z,5.93
2019-01-12T09:22:07.971Z,6.15
2019-01-12T09:23:13.049Z,6.18
2019-01-12T09:24:19.401Z,6.23
2019-01-12T09:25:25.781Z,6.21
2019-01-12T09:26:32.702Z,6.21
2019-01-12T09:27:39.642Z,6.14
2019-01-12T09:28:45.620Z,6.26
2019-01-12T09:29:51.930Z,6.30
2019-01-12T09:30:58.274Z,6.31
2019-01-12T09:32:04.257Z,6.34
2019-01-12T09:33:10.641Z,6.34
2019-01-12T09:34:17.013Z,6.09
2019-01-12T09:35:23.025Z,6.08
2019-01-12T09:36:29.324Z,6.20
2019-01-12T09:37:35.272Z,6.15
2019-01-12T09:38:41.578Z,6.31
2019-01-12T09:39:47.957Z,6.29
2019-01-12T09:40:54.302Z,6.27
2019-01-12T09:42:00.646Z,6.30
2019-01-12T09:43:06.654Z,6.49
2019-01-12T09:44:12.955Z,6.43
2019-01-12T09:45:18.590Z,6.38
2019-01-12T09:46:24.216Z,6.47
2019-01-12T09:47:31.357Z,6.48
2019-01-12T09:48:38.200Z,6.44
2019-01-12T09:49:44.525Z,6.53
2019-01-12T09:50:50.810Z,6.50
2019-01-12T09:51:57.190Z,6.53
2019-01-12T09:53:03.157Z,6.42
2019-01-12T09:54:09.509Z,6.55
2019-01-12T09:55:15.494Z,6.54
2019-01-12T09:56:21.797Z,6.68
2019-01-12T09:57:28.089Z,6.71
2019-01-12T09:58:34.421Z,6.72
2019-01-12T09:59:40.397Z,6.64
2019-01-12T10:00:46.795Z,6.49
2019-01-12T10:01:52.794Z,6.63
2019-01-12T10:02:59.164Z,6.84
2019-01-12T10:04:05.527Z,6.65
2019-01-12T10:05:11.135Z,6.60
2019-01-12T10:06:17.464Z,6.68
2019-01-12T10:07:23.766Z,6.53
2019-01-12T10:08:30.133Z,6.49
2019-01-12T10:09:36.526Z,6.60
2019-01-12T10:10:42.872Z,6.58
2019-01-12T10:11:49.252Z,6.73
2019-01-12T10:12:55.559Z,6.79
2019-01-12T10:14:01.909Z,6.75
2019-01-12T10:15:07.545Z,6.57
2019-01-12T10:16:13.856Z,6.55
2019-01-12T10:17:20.200Z,6.49
2019-01-12T10:18:26.502Z,6.69
2019-01-12T10:19:32.817Z,6.77
2019-01-12T10:20:39.130Z,6.82
2019-01-12T10:21:45.457Z,6.74
2019-01-12T10:22:51.772Z,6.67
2019-01-12T10:23:58.128Z,6.65
2019-01-12T10:25:03.790Z,6.70
2019-01-12T10:26:10.091Z,6.80
2019-01-12T10:27:16.421Z,6.63
2019-01-12T10:28:22.763Z,6.54
2019-01-12T10:29:29.090Z,6.59
2019-01-12T10:30:35.646Z,6.53
2019-01-12T10:31:41.967Z,6.56
2019-01-12T10:32:47.916Z,6.66
2019-01-12T10:33:54.249Z,6.65
2019-01-12T10:35:00.553Z,6.68
2019-01-12T10:36:06.185Z,6.64
2019-01-12T10:37:12.520Z,6.64
2019-01-12T10:38:18.907Z,6.86
2019-01-12T10:39:24.869Z,6.77
2019-01-12T10:40:30.695Z,6.61
2019-01-12T10:41:37.076Z,6.65
2019-01-12T10:42:42.703Z,6.73
2019-01-12T10:43:49.088Z,6.54
2019-01-12T10:44:55.411Z,6.57
2019-01-12T10:46:01.716Z,6.56
2019-01-12T10:47:08.097Z,6.57
2019-01-12T10:48:14.071Z,6.42
2019-01-12T10:49:20.037Z,6.45
2019-01-12T10:50:28.302Z,6.49
2019-01-12T10:51:34.619Z,6.56
2019-01-12T10:52:40.605Z,6.53
2019-01-12T10:53:46.975Z,6.59
2019-01-12T10:54:53.336Z,6.54
2019-01-12T10:55:59.695Z,6.54
2019-01-12T10:57:06.131Z,6.55
2019-01-12T10:58:11.787Z,6.58
2019-01-12T10:59:18.178Z,6.69
2019-01-12T11:00:24.681Z,6.68
2019-01-12T11:01:30.975Z,6.64
2019-01-12T11:02:37.289Z,6.53
2019-01-12T11:03:43.688Z,6.58
2019-01-12T11:04:50.003Z,6.51
2019-01-12T11:05:56.444Z,6.60
2019-01-12T11:07:02.214Z,6.64
2019-01-12T11:08:07.935Z,6.54
2019-01-12T11:09:14.236Z,6.59
2019-01-12T11:10:21.142Z,6.57
2019-01-12T11:11:27.277Z,6.63
2019-01-12T11:12:33.696Z,6.53
2019-01-12T11:13:40.144Z,6.56
2019-01-12T11:14:46.509Z,6.66
2019-01-12T11:15:53.255Z,6.67
2019-01-12T11:16:59.705Z,6.74
2019-01-12T11:18:06.200Z,6.71
2019-01-12T11:19:12.185Z,6.69
2019-01-12T11:20:18.074Z,6.64
2019-01-12T11:21:24.486Z,6.74
2019-01-12T11:22:30.402Z,6.74
2019-01-12T11:23:36.704Z,6.61
2019-01-12T11:24:43.094Z,6.68
2019-01-12T11:25:49.434Z,6.66
2019-01-12T11:26:55.746Z,6.73
2019-01-12T11:28:02.125Z,6.75
2019-01-12T11:29:08.510Z,6.76
2019-01-12T11:30:14.103Z,6.64
2019-01-12T11:31:20.422Z,6.60
2019-01-12T11:32:26.735Z,6.54
2019-01-12T11:33:33.050Z,6.52
2019-01-12T11:34:40.877Z,6.58
2019-01-12T11:35:47.188Z,6.73
2019-01-12T11:36:53.493Z,6.76
2019-01-12T11:37:59.777Z,6.73
2019-01-12T11:39:05.456Z,6.64
2019-01-12T11:40:17.748Z,6.57
2019-01-12T11:41:24.134Z,6.55
2019-01-12T11:42:30.589Z,6.54
2019-01-12T11:43:36.911Z,6.53
2019-01-12T11:44:43.219Z,6.51
2019-01-12T11:45:50.720Z,6.55
2019-01-12T11:46:55.970Z,6.59
2019-01-12T11:48:02.328Z,6.54
2019-01-12T11:49:08.836Z,6.56
2019-01-12T11:50:14.625Z,6.52
2019-01-12T11:51:21.827Z,6.43
2019-01-12T11:52:28.170Z,6.52
2019-01-12T11:53:33.844Z,6.53
2019-01-12T11:54:40.232Z,6.54
2019-01-12T11:55:47.537Z,6.49
2019-01-12T11:56:54.113Z,6.47
2019-01-12T11:58:00.476Z,6.53
2019-01-12T11:59:06.463Z,6.62
2019-01-12T12:00:14.661Z,6.55
2019-01-12T12:01:21.032Z,6.61
2019-01-12T12:02:27.374Z,6.66
2019-01-12T12:03:33.445Z,6.60
2019-01-12T12:04:39.788Z,6.55
2019-01-12T12:05:46.127Z,6.49
2019-01-12T12:06:52.421Z,6.52
2019-01-12T12:07:58.528Z,6.52
2019-01-12T12:09:03.925Z,6.46
2019-01-12T12:10:10.448Z,6.53
2019-01-12T12:11:16.838Z,6.59
2019-01-12T12:12:23.177Z,6.52
2019-01-12T12:13:29.517Z,6.66
2019-01-12T12:14:35.826Z,6.54
2019-01-12T12:15:42.183Z,6.51
2019-01-12T12:16:49.403Z,6.57
2019-01-12T12:17:56.155Z,6.59
2019-01-12T12:19:02.491Z,6.58
2019-01-12T12:20:12.386Z,6.59
2019-01-12T12:21:18.328Z,6.56
2019-01-12T12:22:24.673Z,6.51
2019-01-12T12:23:30.990Z,6.52
2019-01-12T12:24:37.304Z,6.56
2019-01-12T12:25:43.364Z,6.48
2019-01-12T12:26:49.670Z,6.55
2019-01-12T12:27:55.671Z,6.56
2019-01-12T12:29:02.060Z,6.56
2019-01-12T12:30:12.201Z,6.38
2019-01-12T12:31:18.197Z,6.52
2019-01-12T12:32:24.601Z,6.58
2019-01-12T12:33:30.908Z,6.68
2019-01-12T12:34:37.235Z,6.59
2019-01-12T12:35:43.234Z,6.42
2019-01-12T12:36:49.623Z,6.48
2019-01-12T12:37:55.790Z,6.42
2019-01-12T12:39:02.198Z,6.47
2019-01-12T12:40:07.913Z,6.49
2019-01-12T12:41:14.380Z,6.47
2019-01-12T12:42:20.721Z,6.38
2019-01-12T12:43:27.185Z,6.39
2019-01-12T12:44:33.502Z,6.36
2019-01-12T12:45:39.912Z,6.26
2019-01-12T12:46:46.288Z,6.30
2019-01-12T12:47:52.764Z,6.31
2019-01-12T12:48:59.099Z,6.35
2019-01-12T12:50:04.723Z,6.32
2019-01-12T12:51:11.185Z,6.33
2019-01-12T12:52:17.500Z,6.25
2019-01-12T12:53:23.860Z,6.40
2019-01-12T12:54:30.183Z,6.44
2019-01-12T12:55:36.675Z,6.28
2019-01-12T12:56:43.054Z,6.16
2019-01-12T12:57:49.038Z,6.19
2019-01-12T12:58:55.328Z,6.14
2019-01-12T13:00:02.223Z,6.20
2019-01-12T13:01:08.167Z,6.20
2019-01-12T13:02:14.485Z,6.24
2019-01-12T13:03:20.800Z,6.21
2019-01-12T13:04:27.131Z,6.20
2019-01-12T13:05:32.806Z,6.13
2019-01-12T13:06:39.277Z,6.07
2019-01-12T13:07:44.888Z,6.14
2019-01-12T13:08:51.205Z,6.11
2019-01-12T13:09:57.468Z,6.10
2019-01-12T13:11:03.446Z,6.16
2019-01-12T13:12:09.414Z,6.16
2019-01-12T13:13:15.376Z,6.05
2019-01-12T13:14:21.382Z,6.04
2019-01-12T13:15:27.679Z,6.05
2019-01-12T13:16:34.081Z,6.04
2019-01-12T13:17:41.627Z,5.98
2019-01-12T13:18:47.688Z,6.07
2019-01-12T13:19:54.071Z,6.04
2019-01-12T13:21:00.430Z,6.07
2019-01-12T13:22:06.602Z,6.16
2019-01-12T13:23:12.948Z,6.11
2019-01-12T13:24:19.359Z,6.08
2019-01-12T13:25:25.359Z,6.04
2019-01-12T13:26:31.735Z,6.04
2019-01-12T13:27:40.017Z,6.10
2019-01-12T13:28:44.011Z,6.14
2019-01-12T13:29:50.515Z,6.14
2019-01-12T13:30:56.963Z,6.01
2019-01-12T13:32:02.986Z,6.06
2019-01-12T13:33:09.443Z,6.11
2019-01-12T13:34:15.817Z,6.13
2019-01-12T13:35:21.986Z,6.11
2019-01-12T13:36:28.456Z,6.07
2019-01-12T13:37:35.598Z,6.13
2019-01-12T13:38:42.775Z,6.00
2019-01-12T13:39:49.126Z,6.02
2019-01-12T13:40:55.502Z,5.91
2019-01-12T13:42:01.940Z,5.96
2019-01-12T13:43:08.332Z,6.03
2019-01-12T13:44:14.661Z,5.98
2019-01-12T13:45:20.307Z,6.05
2019-01-12T13:46:26.773Z,5.96
2019-01-12T13:47:33.145Z,5.92
2019-01-12T13:48:39.740Z,5.87
2019-01-12T13:49:46.296Z,5.73
2019-01-12T13:50:52.677Z,5.65
2019-01-12T13:51:59.108Z,5.72
2019-01-12T13:53:05.139Z,5.73
2019-01-12T13:54:11.492Z,5.64
2019-01-12T13:55:17.162Z,5.43
2019-01-12T13:56:23.515Z,5.42
2019-01-12T13:57:29.875Z,5.49
2019-01-12T13:58:36.239Z,5.42
2019-01-12T13:59:42.561Z,5.54
2019-01-12T14:00:49.028Z,5.55
2019-01-12T14:01:55.373Z,5.61
2019-01-12T14:03:01.639Z,5.43
2019-01-12T14:04:09.262Z,5.37
2019-01-12T14:05:16.153Z,5.43
2019-01-12T14:06:22.592Z,5.41
2019-01-12T14:07:28.968Z,5.45
2019-01-12T14:08:35.526Z,5.43
2019-01-12T14:09:42.667Z,5.40
2019-01-12T14:10:49.062Z,5.35
2019-01-12T14:11:55.479Z,5.40
2019-01-12T14:13:02.056Z,5.38
2019-01-12T14:14:08.526Z,5.32
2019-01-12T14:15:14.456Z,5.33
2019-01-12T14:16:20.580Z,5.24
2019-01-12T14:17:26.624Z,5.26
2019-01-12T14:18:32.651Z,5.38
2019-01-12T14:19:39.067Z,5.47
2019-01-12T14:20:45.402Z,5.28
2019-01-12T14:21:51.471Z,5.27
2019-01-12T14:22:58.060Z,5.24
2019-01-12T14:24:04.841Z,5.37
2019-01-12T14:25:10.767Z,5.33
2019-01-12T14:26:17.166Z,5.37
2019-01-12T14:27:23.573Z,5.28
2019-01-12T14:28:30.011Z,5.29
2019-01-12T14:29:36.135Z,5.21
2019-01-12T14:30:42.689Z,5.33
2019-01-12T14:31:49.328Z,5.35
2019-01-12T14:32:55.398Z,5.38
2019-01-12T14:34:01.852Z,5.30
2019-01-12T14:35:07.744Z,5.21
2019-01-12T14:36:13.869Z,5.26
2019-01-12T14:37:20.552Z,5.25
2019-01-12T14:38:27.384Z,5.33
2019-01-12T14:39:34.828Z,5.35
2019-01-12T14:40:41.999Z,5.36
2019-01-12T14:41:48.711Z,5.26
2019-01-12T14:42:55.226Z,5.10